createdAt,value
2023-04-18T00:02:10.017Z,16.10
2023-04-18T00:04:41.126Z,16.85
2023-04-18T00:07:10.920Z,18.35
2023-04-18T00:09:37.314Z,16.17
2023-04-18T00:12:03.806Z,13.88
2023-04-18T00:14:30.145Z,16.85
2023-04-18T00:16:56.490Z,15.25
2023-04-18T00:19:25.322Z,12.85
2023-04-18T00:21:51.837Z,12.63
2023-04-18T00:24:18.160Z,14.43
2023-04-18T00:26:46.527Z,12.77
2023-04-18T00:29:12.866Z,13.25
2023-04-18T00:31:44.144Z,12.25
2023-04-18T00:34:10.484Z,14.40
2023-04-18T00:36:44.273Z,12.50
2023-04-18T00:39:10.585Z,13.32
2023-04-18T00:41:36.880Z,10.90
2023-04-18T00:44:03.225Z,11.18
2023-04-18T00:46:29.598Z,11.23
2023-04-18T00:48:56.075Z,12.60
2023-04-18T00:51:22.449Z,10.75
2023-04-18T00:53:53.736Z,11.77
2023-04-18T00:56:20.128Z,10.93
2023-04-18T00:58:47.816Z,10.15
2023-04-18T01:01:14.143Z,13.55
2023-04-18T01:03:57.933Z,11.77
2023-04-18T01:06:27.399Z,10.95
2023-04-18T01:08:56.806Z,10.57
2023-04-18T01:11:24.059Z,8.90
2023-04-18T01:14:09.592Z,8.18
2023-04-18T01:16:36.105Z,9.82
2023-04-18T01:19:04.170Z,12.55
2023-04-18T01:21:35.217Z,10.43
2023-04-18T01:24:08.633Z,9.60
2023-04-18T01:26:35.002Z,10.23
2023-04-18T01:29:01.398Z,10.55
2023-04-18T01:31:30.153Z,8.48
2023-04-18T01:33:56.500Z,9.05
2023-04-18T01:36:28.141Z,9.75
2023-04-18T01:38:56.878Z,10.65
2023-04-18T01:41:33.839Z,10.95
2023-04-18T01:44:00.809Z,10.15
2023-04-18T01:46:27.659Z,9.88
2023-04-18T01:48:54.218Z,7.93
2023-04-18T01:51:23.137Z,10.75
2023-04-18T01:53:50.725Z,11.38
2023-04-18T01:56:17.277Z,8.18
2023-04-18T01:58:44.873Z,11.95
2023-04-18T02:01:11.438Z,9.00
2023-04-18T02:03:37.926Z,10.77
2023-04-18T02:06:05.337Z,10.57
2023-04-18T02:08:32.983Z,8.73
2023-04-18T02:10:59.295Z,9.70
2023-04-18T02:13:25.616Z,8.48
2023-04-18T02:15:52.009Z,11.50
2023-04-18T02:18:18.324Z,8.73
2023-04-18T02:20:44.733Z,10.75
2023-04-18T02:23:11.169Z,9.68
2023-04-18T02:25:37.503Z,10.70
2023-04-18T02:28:04.030Z,9.25
2023-04-18T02:30:30.557Z,12.57
2023-04-18T02:32:57.899Z,8.85
2023-04-18T02:35:27.918Z,9.68
2023-04-18T02:37:54.239Z,14.85
2023-04-18T02:40:22.953Z,9.10
2023-04-18T02:42:51.847Z,10.55
2023-04-18T02:45:19.098Z,7.82
2023-04-18T02:47:54.715Z,8.60
2023-04-18T02:50:22.927Z,9.52
2023-04-18T02:52:49.262Z,7.43
2023-04-18T02:55:15.737Z,9.63
2023-04-18T02:57:42.024Z,9.75
2023-04-18T03:00:13.208Z,7.80
2023-04-18T03:02:43.014Z,10.00
2023-04-18T03:05:12.491Z,10.15
2023-04-18T03:07:40.959Z,11.32
2023-04-18T03:10:07.568Z,12.30
2023-04-18T03:12:33.871Z,8.45
2023-04-18T03:15:02.554Z,9.45
2023-04-18T03:17:31.959Z,10.75
2023-04-18T03:20:03.806Z,8.55
2023-04-18T03:22:30.107Z,10.60
2023-04-18T03:24:56.400Z,8.23
2023-04-18T03:27:25.150Z,11.07
2023-04-18T03:29:53.867Z,8.60
2023-04-18T03:32:21.430Z,11.40
2023-04-18T03:34:48.881Z,10.45
2023-04-18T03:37:15.198Z,11.55
2023-04-18T03:39:41.554Z,9.10
2023-04-18T03:42:08.051Z,10.77
2023-04-18T03:44:34.468Z,9.25
2023-04-18T03:47:03.228Z,9.48
2023-04-18T03:49:29.513Z,9.57
2023-04-18T03:51:55.860Z,11.50
2023-04-18T03:54:22.153Z,9.98
2023-04-18T03:56:48.445Z,9.85
2023-04-18T03:59:15.993Z,9.65
2023-04-18T04:01:42.334Z,9.48
2023-04-18T04:04:08.722Z,11.10
2023-04-18T04:06:35.266Z,14.15
2023-04-18T04:09:03.849Z,11.43
2023-04-18T04:11:30.248Z,11.52
2023-04-18T04:13:59.069Z,8.95
2023-04-18T04:16:25.537Z,9.88
2023-04-18T04:18:51.938Z,9.93
2023-04-18T04:21:21.148Z,10.73
2023-04-18T04:23:47.994Z,12.48
2023-04-18T04:26:20.988Z,11.02
2023-04-18T04:28:52.417Z,12.43
2023-04-18T04:31:20.337Z,10.82
2023-04-18T04:33:53.554Z,11.38
2023-04-18T04:36:20.061Z,12.73
2023-04-18T04:38:48.512Z,9.95
2023-04-18T04:41:14.994Z,12.18
2023-04-18T04:43:42.464Z,10.02
2023-04-18T04:46:12.004Z,12.48
2023-04-18T04:48:38.576Z,10.75
2023-04-18T04:51:06.134Z,10.40
2023-04-18T04:53:33.602Z,13.50
2023-04-18T04:55:59.940Z,13.25
2023-04-18T04:58:26.744Z,11.10
2023-04-18T05:00:59.080Z,12.05
2023-04-18T05:03:25.556Z,12.32
2023-04-18T05:05:55.923Z,13.77
2023-04-18T05:08:24.718Z,11.35
2023-04-18T05:10:51.017Z,11.15
2023-04-18T05:13:19.973Z,11.75
2023-04-18T05:15:50.204Z,14.35
2023-04-18T05:18:16.596Z,12.63
2023-04-18T05:20:44.014Z,13.25
2023-04-18T05:23:11.436Z,12.63
2023-04-18T05:25:37.950Z,10.32
2023-04-18T05:28:04.665Z,11.13
2023-04-18T05:30:31.174Z,11.55
2023-04-18T05:32:57.600Z,11.45
2023-04-18T05:35:27.419Z,11.98
2023-04-18T05:37:53.908Z,13.52
2023-04-18T05:40:21.681Z,11.30
2023-04-18T05:42:50.713Z,12.27
2023-04-18T05:45:17.257Z,10.43
2023-04-18T05:47:43.662Z,12.38
2023-04-18T05:50:10.527Z,12.65
2023-04-18T05:52:37.994Z,11.15
2023-04-18T05:55:10.270Z,11.75
2023-04-18T05:57:39.707Z,12.00
2023-04-18T06:00:08.601Z,11.02
2023-04-18T06:02:37.496Z,11.75
2023-04-18T06:05:12.447Z,14.85
2023-04-18T06:07:42.405Z,12.70
2023-04-18T06:10:09.203Z,11.52
2023-04-18T06:12:35.578Z,12.60
2023-04-18T06:15:02.516Z,13.32
2023-04-18T06:17:28.837Z,12.73
2023-04-18T06:19:57.696Z,12.40
2023-04-18T06:22:27.009Z,14.18
2023-04-18T06:24:56.235Z,14.57
2023-04-18T06:27:30.576Z,12.95
2023-04-18T06:29:57.674Z,12.85
2023-04-18T06:32:24.126Z,14.20
2023-04-18T06:34:50.476Z,14.70
2023-04-18T06:37:19.837Z,11.23
2023-04-18T06:39:48.518Z,12.55
2023-04-18T06:42:15.906Z,11.57
2023-04-18T06:44:44.651Z,15.10
2023-04-18T06:47:24.270Z,12.10
2023-04-18T06:49:54.329Z,13.65
2023-04-18T06:52:21.695Z,13.00
2023-04-18T06:54:48.090Z,12.95
2023-04-18T06:57:14.797Z,13.27
2023-04-18T06:59:41.175Z,10.98
2023-04-18T07:02:08.458Z,11.75
2023-04-18T07:04:38.369Z,10.95
2023-04-18T07:07:09.872Z,12.32
2023-04-18T07:09:38.543Z,11.55
2023-04-18T07:12:06.012Z,12.77
2023-04-18T07:14:34.275Z,13.38
2023-04-18T07:17:03.935Z,10.25
2023-04-18T07:19:32.580Z,9.68
2023-04-18T07:21:58.923Z,11.18
2023-04-18T07:24:25.345Z,9.95
2023-04-18T07:26:54.488Z,13.10
2023-04-18T07:29:21.497Z,11.02
2023-04-18T07:31:48.446Z,10.13
2023-04-18T07:34:15.324Z,11.23
2023-04-18T07:36:42.371Z,11.57
2023-04-18T07:39:09.099Z,9.63
2023-04-18T07:41:35.618Z,10.38
2023-04-18T07:44:03.348Z,12.45
2023-04-18T07:46:29.763Z,10.35
2023-04-18T07:48:58.886Z,11.40
2023-04-18T07:51:29.338Z,13.00
2023-04-18T07:54:06.125Z,9.57
2023-04-18T07:56:41.275Z,9.23
2023-04-18T07:59:07.635Z,9.82
2023-04-18T08:01:34.173Z,9.38
2023-04-18T08:04:01.100Z,8.77
2023-04-18T08:06:28.493Z,7.28
2023-04-18T08:08:55.684Z,8.35
2023-04-18T08:11:29.402Z,8.82
2023-04-18T08:13:56.000Z,9.05
2023-04-18T08:16:22.353Z,8.82
2023-04-18T08:18:48.705Z,10.15
2023-04-18T08:21:19.133Z,9.55
2023-04-18T08:23:46.599Z,8.45
2023-04-18T08:26:12.977Z,9.13
2023-04-18T08:28:39.363Z,8.07
2023-04-18T08:31:05.710Z,7.57
2023-04-18T08:33:32.285Z,8.43
2023-04-18T08:36:02.069Z,10.18
2023-04-18T08:38:30.818Z,9.52
2023-04-18T08:41:00.438Z,8.27
2023-04-18T08:43:26.852Z,10.85
2023-04-18T08:45:58.397Z,8.48
2023-04-18T08:48:24.960Z,6.50
2023-04-18T08:50:57.463Z,9.10
2023-04-18T08:53:24.178Z,8.38
2023-04-18T08:55:57.097Z,8.57
2023-04-18T08:58:24.749Z,6.43
2023-04-18T09:00:52.292Z,9.43
2023-04-18T09:03:39.710Z,8.48
2023-04-18T09:06:14.166Z,7.90
2023-04-18T09:08:41.851Z,7.07
2023-04-18T09:11:30.748Z,10.20
2023-04-18T09:14:00.242Z,7.07
2023-04-18T09:16:27.754Z,7.45
2023-04-18T09:21:39.301Z,6.85
2023-04-18T09:24:19.260Z,6.40
2023-04-18T09:26:45.790Z,6.55
2023-04-18T09:29:12.510Z,6.88
2023-04-18T09:31:59.438Z,6.75
2023-04-18T09:34:26.765Z,6.35
2023-04-18T09:37:07.612Z,5.95
2023-04-18T09:39:34.324Z,6.30
2023-04-18T09:42:01.979Z,7.03
2023-04-18T09:44:28.484Z,8.88
2023-04-18T09:46:54.981Z,5.68
2023-04-18T09:49:22.352Z,7.18
2023-04-18T09:51:52.564Z,6.85
2023-04-18T09:54:19.700Z,8.18
2023-04-18T09:56:47.240Z,8.88
2023-04-18T09:59:19.838Z,7.63
2023-04-18T10:01:49.363Z,6.57
2023-04-18T10:04:16.967Z,7.60
2023-04-18T10:06:52.138Z,7.05
2023-04-18T10:09:18.573Z,7.50
2023-04-18T10:11:45.411Z,6.20
2023-04-18T10:19:31.186Z,6.20
2023-04-18T10:27:51.218Z,6.28
2023-04-18T10:30:38.078Z,6.80
2023-04-18T10:33:29.922Z,5.93
2023-04-18T10:36:05.282Z,7.82
2023-04-18T10:38:36.090Z,6.68
2023-04-18T10:41:33.771Z,6.72
2023-04-18T10:44:07.623Z,5.70
2023-04-18T10:46:39.723Z,6.07
2023-04-18T10:49:16.454Z,5.43
2023-04-18T10:51:51.608Z,4.45
2023-04-18T10:54:37.715Z,5.85
2023-04-18T10:57:05.143Z,6.00
2023-04-18T10:59:34.417Z,5.90
2023-04-18T11:02:23.190Z,6.70
2023-04-18T11:04:53.885Z,6.07
2023-04-18T11:07:37.386Z,7.50
2023-04-18T11:10:06.127Z,5.45
2023-04-18T11:12:36.444Z,7.25
2023-04-18T11:15:09.486Z,6.65
2023-04-18T11:17:35.991Z,6.93
2023-04-18T11:20:21.521Z,7.35
2023-04-18T11:22:50.278Z,7.18
2023-04-18T11:25:18.203Z,5.95
2023-04-18T11:27:46.354Z,7.28
2023-04-18T11:30:14.620Z,7.15
2023-04-18T11:32:41.409Z,7.25
2023-04-18T11:35:12.574Z,8.15
2023-04-18T11:37:40.214Z,6.85
2023-04-18T11:40:10.991Z,6.43
2023-04-18T11:42:41.460Z,8.35
2023-04-18T11:45:15.373Z,10.00
2023-04-18T11:47:48.774Z,7.85
2023-04-18T11:50:15.143Z,8.50
2023-04-18T11:52:42.148Z,9.55
2023-04-18T11:55:11.851Z,9.32
2023-04-18T11:57:40.065Z,9.77
2023-04-18T12:00:07.936Z,8.93
2023-04-18T12:02:46.410Z,8.90
2023-04-18T12:05:25.305Z,9.07
2023-04-18T12:08:08.678Z,8.60
2023-04-18T12:10:39.907Z,8.75
2023-04-18T12:13:08.366Z,9.02
2023-04-18T12:15:38.381Z,10.23
2023-04-18T12:18:05.860Z,9.50
2023-04-18T12:20:45.187Z,9.82
2023-04-18T12:23:36.340Z,9.05
2023-04-18T12:26:18.536Z,10.07
2023-04-18T12:31:11.968Z,10.93
2023-04-18T12:33:39.624Z,10.30
2023-04-18T12:36:06.578Z,12.13
2023-04-18T12:38:35.489Z,12.90
2023-04-18T12:41:03.144Z,9.90
2023-04-18T12:43:30.603Z,11.18
2023-04-18T12:45:59.598Z,11.00
2023-04-18T12:48:25.949Z,11.15
2023-04-18T12:50:52.232Z,12.15
2023-04-18T12:53:18.597Z,10.55
2023-04-18T12:55:44.886Z,12.43
2023-04-18T12:58:13.731Z,12.55
2023-04-18T13:00:40.114Z,12.07
2023-04-18T13:03:11.786Z,14.05
2023-04-18T13:05:39.473Z,13.13
2023-04-18T13:08:16.400Z,11.63
2023-04-18T13:10:44.995Z,11.40
2023-04-18T13:13:11.547Z,11.93
2023-04-18T13:15:38.423Z,11.98
2023-04-18T13:18:05.374Z,11.75
2023-04-18T13:20:33.002Z,11.63
2023-04-18T13:22:59.398Z,11.98
2023-04-18T13:25:25.784Z,13.68
2023-04-18T13:27:52.121Z,12.77
2023-04-18T13:30:18.708Z,14.43
2023-04-18T13:32:45.277Z,12.77
2023-04-18T13:35:11.742Z,14.55
2023-04-18T13:37:41.016Z,13.95
2023-04-18T13:40:08.083Z,14.13
2023-04-18T13:42:36.095Z,14.25
2023-04-18T13:45:03.906Z,13.90
2023-04-18T13:47:32.839Z,12.48
2023-04-18T13:49:59.426Z,12.32
2023-04-18T13:52:26.025Z,12.10
2023-04-18T13:54:52.381Z,13.60
2023-04-18T13:57:18.665Z,15.98
2023-04-18T13:59:45.001Z,12.38
2023-04-18T14:02:11.580Z,13.15
2023-04-18T14:04:41.354Z,12.52
2023-04-18T14:07:10.378Z,13.40
2023-04-18T14:09:40.560Z,14.10
2023-04-18T14:12:07.086Z,14.43
2023-04-18T14:14:33.777Z,12.00
2023-04-18T14:17:02.608Z,12.35
2023-04-18T14:19:28.945Z,12.73
2023-04-18T14:21:55.241Z,11.38
2023-04-18T14:24:21.599Z,12.52
2023-04-18T14:26:50.475Z,12.38
2023-04-18T14:29:16.891Z,11.95
2023-04-18T14:31:44.771Z,14.60
2023-04-18T14:34:11.324Z,13.30
2023-04-18T14:36:37.660Z,13.98
2023-04-18T14:39:05.898Z,11.68
2023-04-18T14:41:32.248Z,12.57
2023-04-18T14:43:59.135Z,12.75
2023-04-18T14:46:26.634Z,13.07
2023-04-18T14:48:52.967Z,11.85
2023-04-18T14:51:19.290Z,12.65
2023-04-18T14:53:50.530Z,11.25
2023-04-18T14:56:20.386Z,12.13
2023-04-18T14:58:46.756Z,13.35
2023-04-18T15:01:13.030Z,11.38
2023-04-18T15:03:40.162Z,11.60
2023-04-18T15:06:06.962Z,12.57
2023-04-18T15:08:33.266Z,12.52
2023-04-18T15:11:05.634Z,11.95
2023-04-18T15:13:33.162Z,15.38
2023-04-18T15:15:59.551Z,14.23
2023-04-18T15:18:25.864Z,13.90
2023-04-18T15:20:52.244Z,12.63
2023-04-18T15:23:18.562Z,12.07
2023-04-18T15:25:45.701Z,11.90
2023-04-18T15:28:13.117Z,13.65
2023-04-18T15:30:44.522Z,11.95
2023-04-18T15:33:11.112Z,10.65
2023-04-18T15:35:37.500Z,9.10
2023-04-18T15:38:06.550Z,11.98
2023-04-18T16:07:29.935Z,11.10
2023-04-18T16:09:56.242Z,11.50
2023-04-18T16:17:52.023Z,11.45
2023-04-18T16:20:18.430Z,9.60
2023-04-18T16:22:45.945Z,10.95
2023-04-18T16:25:15.735Z,10.95
2023-04-18T19:43:54.705Z,8.98
